createdAt,value
2022-08-25T00:03:14.500Z,20.80
2022-08-25T00:08:18.467Z,20.78
2022-08-25T00:13:21.190Z,20.79
2022-08-25T00:18:28.570Z,20.82
2022-08-25T00:23:31.930Z,20.86
2022-08-25T00:28:36.586Z,20.86
2022-08-25T00:33:39.441Z,20.83
2022-08-25T00:38:44.044Z,20.81
2022-08-25T00:43:48.945Z,20.77
2022-08-25T00:48:58.261Z,20.75
2022-08-25T00:54:02.798Z,20.73
2022-08-25T00:59:05.933Z,20.72
2022-08-25T01:04:09.053Z,20.72
2022-08-25T01:09:14.150Z,20.72
2022-08-25T01:14:19.965Z,20.77
2022-08-25T01:19:22.721Z,20.84
2022-08-25T01:24:44.235Z,20.87
2022-08-25T01:29:46.967Z,20.92
2022-08-25T01:34:49.881Z,20.94
2022-08-25T01:39:55.102Z,20.97
2022-08-25T01:44:57.859Z,21.02
2022-08-25T01:50:00.643Z,21.09
2022-08-25T01:55:05.279Z,21.13
2022-08-25T02:00:12.830Z,21.16
2022-08-25T02:05:18.487Z,21.15
2022-08-25T02:10:25.640Z,21.16
2022-08-25T02:15:28.525Z,21.19
2022-08-25T02:20:31.307Z,21.20
2022-08-25T02:25:34.409Z,21.17
2022-08-25T02:30:39.053Z,21.13
2022-08-25T02:35:42.381Z,21.10
2022-08-25T02:40:45.107Z,21.07
2022-08-25T02:45:48.157Z,21.00
2022-08-25T02:50:52.940Z,20.95
2022-08-25T02:55:55.985Z,20.89
2022-08-25T03:00:58.740Z,20.86
2022-08-25T03:06:02.593Z,20.84
2022-08-25T03:11:06.513Z,20.87
2022-08-25T03:16:11.453Z,20.93
2022-08-25T03:21:16.477Z,20.93
2022-08-25T03:26:49.331Z,20.92
2022-08-25T03:31:54.937Z,20.89
2022-08-25T03:36:58.934Z,20.89
2022-08-25T03:42:03.166Z,20.91
2022-08-25T03:47:07.252Z,20.94
2022-08-25T03:52:10.570Z,20.96
2022-08-25T03:57:13.604Z,21.01
2022-08-25T04:02:16.337Z,21.09
2022-08-25T04:07:20.038Z,21.13
2022-08-25T04:12:23.926Z,21.20
2022-08-25T04:17:26.924Z,21.29
2022-08-25T04:22:31.170Z,21.40
2022-08-25T04:27:37.614Z,21.57
2022-08-25T04:32:40.408Z,21.74
2022-08-25T04:37:43.309Z,21.96
2022-08-25T04:42:48.057Z,22.25
2022-08-25T04:47:54.845Z,22.48
2022-08-25T04:52:58.706Z,22.74
2022-08-25T04:58:01.568Z,22.96
2022-08-25T05:03:05.976Z,23.06
2022-08-25T05:08:08.927Z,23.04
2022-08-25T05:13:11.829Z,22.77
2022-08-25T05:18:14.737Z,22.49
2022-08-25T05:23:17.832Z,22.30
2022-08-25T05:28:21.171Z,22.10
2022-08-25T05:33:24.017Z,21.96
2022-08-25T05:38:27.450Z,21.87
2022-08-25T05:43:31.105Z,21.81
2022-08-25T05:48:34.416Z,21.79
2022-08-25T05:53:39.245Z,21.77
2022-08-25T05:58:43.575Z,21.72
2022-08-25T06:03:47.831Z,21.74
2022-08-25T06:08:50.689Z,21.83
2022-08-25T06:13:54.271Z,21.93
2022-08-25T06:18:57.043Z,22.00
2022-08-25T06:23:59.986Z,22.07
2022-08-25T06:29:03.957Z,22.15
2022-08-25T06:34:06.805Z,22.27
2022-08-25T06:39:10.586Z,22.34
2022-08-25T06:44:13.490Z,22.35
2022-08-25T06:49:16.234Z,22.40
2022-08-25T06:54:18.943Z,22.53
2022-08-25T06:59:22.381Z,22.74
2022-08-25T07:04:25.793Z,23.05
2022-08-25T07:09:28.993Z,23.23
2022-08-25T07:14:31.751Z,23.37
2022-08-25T07:19:34.834Z,23.44
2022-08-25T07:24:37.624Z,23.49
2022-08-25T07:29:42.214Z,23.53
2022-08-25T07:35:04.354Z,23.64
2022-08-25T07:40:08.347Z,23.75
2022-08-25T07:45:12.652Z,23.92
2022-08-25T07:50:15.411Z,24.03
2022-08-25T07:55:18.460Z,24.23
2022-08-25T08:00:32.173Z,24.42
2022-08-25T08:05:37.454Z,24.56
2022-08-25T08:11:04.030Z,24.78
2022-08-25T08:16:09.948Z,24.97
2022-08-25T08:21:19.230Z,25.24
2022-08-25T08:26:36.526Z,25.58
2022-08-25T08:31:48.648Z,25.90
2022-08-25T08:36:52.090Z,26.18
2022-08-25T08:42:19.246Z,26.42
2022-08-25T08:47:35.847Z,26.59
2022-08-25T08:52:48.779Z,26.72
2022-08-25T08:57:55.795Z,26.67
2022-08-25T09:03:07.700Z,26.58
2022-08-25T09:08:13.775Z,26.52
2022-08-25T09:14:00.419Z,26.58
2022-08-25T09:19:32.149Z,26.60
2022-08-25T09:24:52.669Z,26.51
2022-08-25T09:30:10.199Z,26.61
2022-08-25T09:35:26.344Z,26.86
2022-08-25T09:40:35.451Z,27.13
2022-08-25T09:45:46.425Z,27.54
2022-08-25T09:50:51.438Z,28.05
2022-08-25T09:56:04.705Z,28.52
2022-08-25T10:01:25.790Z,28.95
2022-08-25T10:06:43.532Z,29.42
2022-08-25T10:11:48.509Z,29.80
2022-08-25T10:16:53.469Z,29.94
2022-08-25T10:22:12.827Z,30.04
2022-08-25T10:27:39.504Z,30.31
2022-08-25T10:32:52.099Z,31.37
2022-08-25T10:37:59.070Z,31.87
2022-08-25T10:43:43.689Z,32.46
2022-08-25T10:49:10.631Z,33.16
2022-08-25T10:54:52.027Z,33.79
2022-08-25T11:00:14.118Z,33.95
2022-08-25T11:05:31.186Z,34.16
2022-08-25T11:11:02.662Z,34.30
2022-08-25T11:16:19.208Z,35.06
2022-08-25T11:21:48.846Z,36.75
2022-08-25T11:26:56.281Z,38.37
2022-08-25T11:32:02.090Z,40.62
2022-08-25T11:37:34.900Z,40.74
2022-08-25T11:43:20.270Z,39.23
2022-08-25T11:48:30.409Z,38.00
2022-08-25T11:53:37.965Z,37.38
2022-08-25T11:58:53.931Z,36.84
2022-08-25T12:04:34.057Z,36.42
2022-08-25T12:10:10.997Z,36.10
2022-08-25T12:16:00.564Z,35.60
2022-08-25T12:21:06.448Z,35.11
2022-08-25T12:26:30.326Z,34.84
2022-08-25T12:32:07.189Z,34.80
2022-08-25T12:37:15.780Z,35.09
2022-08-25T12:42:38.678Z,35.39
2022-08-25T12:47:47.613Z,35.39
2022-08-25T12:52:52.786Z,35.62
2022-08-25T12:57:59.047Z,35.81
2022-08-25T13:03:01.916Z,35.96
2022-08-25T13:08:49.600Z,35.94
2022-08-25T13:14:15.494Z,35.76
2022-08-25T13:19:20.291Z,35.38
2022-08-25T13:24:32.085Z,35.09
2022-08-25T13:29:58.357Z,34.70
2022-08-25T13:35:08.909Z,34.25
2022-08-25T13:40:27.809Z,33.97
2022-08-25T13:45:41.234Z,33.82
2022-08-25T13:50:51.629Z,33.71
2022-08-25T13:55:58.924Z,33.62
2022-08-25T14:01:23.206Z,33.60
2022-08-25T14:06:29.670Z,33.63
2022-08-25T14:11:48.703Z,33.57
2022-08-25T14:17:05.008Z,33.48
2022-08-25T14:22:19.750Z,33.32
2022-08-25T14:27:22.729Z,33.22
2022-08-25T14:32:25.488Z,33.18
2022-08-25T14:37:29.296Z,33.02
2022-08-25T14:42:35.253Z,32.85
2022-08-25T14:47:38.325Z,32.79
2022-08-25T14:52:43.548Z,32.77
2022-08-25T14:57:47.115Z,32.78
2022-08-25T15:02:51.717Z,33.16
2022-08-25T15:08:14.892Z,33.67
2022-08-25T15:13:17.852Z,34.13
2022-08-25T15:18:22.803Z,34.40
2022-08-25T15:23:26.445Z,34.62
2022-08-25T15:28:29.449Z,34.60
2022-08-25T15:33:33.712Z,34.49
2022-08-25T15:38:37.568Z,34.32
2022-08-25T15:43:40.813Z,34.19
2022-08-25T15:48:43.689Z,33.94
2022-08-25T15:53:47.128Z,33.65
2022-08-25T15:58:50.730Z,33.33
2022-08-25T16:03:54.774Z,32.96
2022-08-25T16:08:58.977Z,32.60
2022-08-25T16:14:02.525Z,32.19
2022-08-25T16:19:06.889Z,31.71
2022-08-25T16:24:09.744Z,31.26
2022-08-25T16:29:14.619Z,30.86
2022-08-25T16:34:17.352Z,30.55
2022-08-25T16:39:23.963Z,30.25
2022-08-25T16:44:27.244Z,29.94
2022-08-25T16:49:31.247Z,29.58
2022-08-25T16:54:52.392Z,29.23
2022-08-25T16:59:55.928Z,28.87
2022-08-25T17:04:59.387Z,28.55
2022-08-25T17:10:05.349Z,28.27
2022-08-25T17:15:09.421Z,28.01
2022-08-25T17:20:12.108Z,27.75
2022-08-25T17:25:14.966Z,27.49
2022-08-25T17:30:17.795Z,27.26
2022-08-25T17:35:20.851Z,27.03
2022-08-25T17:40:24.938Z,26.79
2022-08-25T17:45:29.786Z,26.52
2022-08-25T17:50:36.304Z,26.31
2022-08-25T17:55:43.142Z,26.08
2022-08-25T18:00:47.099Z,25.85
2022-08-25T18:05:50.407Z,25.65
2022-08-25T18:10:53.215Z,25.49
2022-08-25T18:15:55.986Z,25.35
2022-08-25T18:20:58.790Z,25.22
2022-08-25T18:26:02.645Z,25.11
2022-08-25T18:31:05.847Z,25.00
2022-08-25T18:36:11.211Z,24.89
2022-08-25T18:41:14.025Z,24.79
2022-08-25T18:46:17.142Z,24.72
2022-08-25T18:51:26.251Z,24.64
2022-08-25T18:56:30.250Z,24.54
2022-08-25T19:01:33.078Z,24.46
2022-08-25T19:06:37.722Z,24.39
2022-08-25T19:11:40.592Z,24.31
2022-08-25T19:16:44.390Z,24.22
2022-08-25T19:21:48.241Z,24.15
2022-08-25T19:26:54.567Z,24.08
2022-08-25T19:32:01.170Z,24.04
2022-08-25T19:37:06.076Z,23.97
2022-08-25T19:42:35.098Z,23.90
2022-08-25T19:47:33.090Z,23.84
2022-08-25T19:52:37.166Z,23.79
2022-08-25T19:57:42.630Z,23.75
2022-08-25T20:02:47.291Z,23.72
2022-08-25T20:07:54.068Z,23.66
2022-08-25T20:12:56.860Z,23.57
2022-08-25T20:18:00.990Z,23.47
2022-08-25T20:23:24.316Z,23.39
2022-08-25T20:28:27.059Z,23.28
2022-08-25T20:33:30.635Z,23.20
2022-08-25T20:38:33.665Z,23.14
2022-08-25T20:43:36.363Z,23.09
2022-08-25T20:48:39.290Z,23.04
2022-08-25T20:53:43.944Z,22.96
2022-08-25T20:58:48.683Z,22.89
2022-08-25T21:03:51.419Z,22.80
2022-08-25T21:08:54.629Z,22.73
2022-08-25T21:13:58.884Z,22.66
2022-08-25T21:19:02.463Z,22.59
2022-08-25T21:24:09.701Z,22.52
2022-08-25T21:29:15.245Z,22.45
2022-08-25T21:34:20.088Z,22.40
2022-08-25T21:39:26.451Z,22.33
2022-08-25T21:44:30.257Z,22.26
2022-08-25T21:49:37.324Z,22.20
2022-08-25T21:54:40.812Z,22.12
2022-08-25T21:59:43.955Z,22.05
2022-08-25T22:04:48.789Z,21.98
2022-08-25T22:09:52.057Z,21.93
2022-08-25T22:14:55.612Z,21.86
2022-08-25T22:19:58.993Z,21.76
2022-08-25T22:25:01.906Z,21.69
2022-08-25T22:30:05.706Z,21.61
2022-08-25T22:35:09.515Z,21.51
2022-08-25T22:40:13.254Z,21.45
2022-08-25T22:45:17.537Z,21.39
2022-08-25T22:50:20.456Z,21.32
2022-08-25T22:55:23.804Z,21.26
2022-08-25T23:00:27.416Z,21.20
2022-08-25T23:05:30.273Z,21.14
2022-08-25T23:10:34.592Z,21.11
2022-08-25T23:15:38.108Z,21.08
2022-08-25T23:20:59.801Z,21.02
2022-08-25T23:26:05.340Z,20.94
2022-08-25T23:31:09.549Z,20.91
2022-08-25T23:36:15.955Z,20.89
2022-08-25T23:41:23.201Z,20.86
2022-08-25T23:46:29.129Z,20.81
2022-08-25T23:51:34.229Z,20.72
2022-08-25T23:56:44.700Z,20.65
